sensor_id;sensor_type;location;lat;lon;timestamp;P1;durP1;ratioP1;P2;durP2;ratioP2
75689;SDS011;64303;53.118;9.044;2023-04-07T00:01:20;11.13;;;10.00;;
75689;SDS011;64303;53.118;9.044;2023-04-07T00:03:47;14.13;;;10.90;;
75689;SDS011;64303;53.118;9.044;2023-04-07T00:06:14;13.50;;;11.20;;
75689;SDS011;64303;53.118;9.044;2023-04-07T00:08:42;11.38;;;8.90;;
75689;SDS011;64303;53.118;9.044;2023-04-07T00:11:08;15.25;;;10.73;;
75689;SDS011;64303;53.118;9.044;2023-04-07T00:13:35;12.77;;;11.10;;
75689;SDS011;64303;53.118;9.044;2023-04-07T00:16:02;12.52;;;9.63;;
75689;SDS011;64303;53.118;9.044;2023-04-07T00:18:28;12.30;;;10.88;;
75689;SDS011;64303;53.118;9.044;2023-04-07T00:20:55;12.30;;;9.65;;
75689;SDS011;64303;53.118;9.044;2023-04-07T00:23:22;16.63;;;11.95;;
75689;SDS011;64303;53.118;9.044;2023-04-07T00:25:50;10.93;;;9.30;;
75689;SDS011;64303;53.118;9.044;2023-04-07T00:28:17;12.77;;;9.98;;
75689;SDS011;64303;53.118;9.044;2023-04-07T00:30:43;14.63;;;10.80;;
75689;SDS011;64303;53.118;9.044;2023-04-07T00:33:10;12.07;;;9.43;;
75689;SDS011;64303;53.118;9.044;2023-04-07T00:35:37;9.52;;;7.97;;
75689;SDS011;64303;53.118;9.044;2023-04-07T00:38:03;14.25;;;9.52;;
75689;SDS011;64303;53.118;9.044;2023-04-07T00:40:31;10.95;;;8.98;;
75689;SDS011;64303;53.118;9.044;2023-04-07T00:42:59;11.15;;;9.82;;
75689;SDS011;64303;53.118;9.044;2023-04-07T00:45:25;14.32;;;9.43;;
75689;SDS011;64303;53.118;9.044;2023-04-07T00:47:53;10.50;;;9.40;;
75689;SDS011;64303;53.118;9.044;2023-04-07T00:50:20;12.05;;;9.57;;
75689;SDS011;64303;53.118;9.044;2023-04-07T00:52:47;10.98;;;9.75;;
75689;SDS011;64303;53.118;9.044;2023-04-07T00:55:14;11.75;;;10.55;;
75689;SDS011;64303;53.118;9.044;2023-04-07T00:57:40;11.35;;;8.73;;
75689;SDS011;64303;53.118;9.044;2023-04-07T01:00:09;13.30;;;9.07;;
75689;SDS011;64303;53.118;9.044;2023-04-07T01:02:39;12.52;;;9.93;;
75689;SDS011;64303;53.118;9.044;2023-04-07T01:05:10;11.85;;;9.82;;
75689;SDS011;64303;53.118;9.044;2023-04-07T01:07:41;12.80;;;9.43;;
75689;SDS011;64303;53.118;9.044;2023-04-07T01:10:15;10.55;;;9.40;;
75689;SDS011;64303;53.118;9.044;2023-04-07T01:12:53;10.95;;;9.77;;
75689;SDS011;64303;53.118;9.044;2023-04-07T01:15:26;13.30;;;10.48;;
75689;SDS011;64303;53.118;9.044;2023-04-07T01:17:58;12.02;;;8.75;;
75689;SDS011;64303;53.118;9.044;2023-04-07T01:20:27;13.88;;;12.57;;
75689;SDS011;64303;53.118;9.044;2023-04-07T01:23:00;11.73;;;9.25;;
75689;SDS011;64303;53.118;9.044;2023-04-07T01:31:08;13.68;;;9.90;;
75689;SDS011;64303;53.118;9.044;2023-04-07T01:33:36;12.70;;;9.85;;
75689;SDS011;64303;53.118;9.044;2023-04-07T01:36:03;15.02;;;11.60;;
75689;SDS011;64303;53.118;9.044;2023-04-07T01:38:30;13.73;;;10.65;;
75689;SDS011;64303;53.118;9.044;2023-04-07T01:40:58;12.95;;;10.20;;
75689;SDS011;64303;53.118;9.044;2023-04-07T01:43:26;12.30;;;9.57;;
75689;SDS011;64303;53.118;9.044;2023-04-07T01:45:53;12.05;;;10.57;;
75689;SDS011;64303;53.118;9.044;2023-04-07T01:48:22;11.85;;;9.68;;
75689;SDS011;64303;53.118;9.044;2023-04-07T01:50:50;14.00;;;10.40;;
75689;SDS011;64303;53.118;9.044;2023-04-07T01:53:17;16.42;;;11.35;;
75689;SDS011;64303;53.118;9.044;2023-04-07T01:55:44;13.80;;;11.38;;
75689;SDS011;64303;53.118;9.044;2023-04-07T01:58:10;13.48;;;10.73;;
75689;SDS011;64303;53.118;9.044;2023-04-07T02:00:40;11.48;;;8.95;;
75689;SDS011;64303;53.118;9.044;2023-04-07T02:03:16;14.70;;;9.55;;
75689;SDS011;64303;53.118;9.044;2023-04-07T02:05:47;14.10;;;10.68;;
75689;SDS011;64303;53.118;9.044;2023-04-07T02:08:16;15.52;;;11.40;;
75689;SDS011;64303;53.118;9.044;2023-04-07T02:10:45;11.40;;;10.10;;
75689;SDS011;64303;53.118;9.044;2023-04-07T02:13:18;13.00;;;11.60;;
75689;SDS011;64303;53.118;9.044;2023-04-07T02:15:48;13.98;;;11.85;;
75689;SDS011;64303;53.118;9.044;2023-04-07T02:18:17;13.63;;;10.13;;
75689;SDS011;64303;53.118;9.044;2023-04-07T02:23:13;14.27;;;12.23;;
75689;SDS011;64303;53.118;9.044;2023-04-07T02:25:40;12.73;;;10.15;;
75689;SDS011;64303;53.118;9.044;2023-04-07T02:28:07;13.23;;;10.23;;
75689;SDS011;64303;53.118;9.044;2023-04-07T02:30:34;14.52;;;10.68;;
75689;SDS011;64303;53.118;9.044;2023-04-07T02:33:01;13.80;;;10.80;;
75689;SDS011;64303;53.118;9.044;2023-04-07T02:35:27;13.23;;;11.73;;
75689;SDS011;64303;53.118;9.044;2023-04-07T02:37:54;10.90;;;9.88;;
75689;SDS011;64303;53.118;9.044;2023-04-07T02:40:22;15.02;;;12.13;;
75689;SDS011;64303;53.118;9.044;2023-04-07T02:42:52;12.85;;;10.57;;
75689;SDS011;64303;53.118;9.044;2023-04-07T02:45:21;14.30;;;12.13;;
75689;SDS011;64303;53.118;9.044;2023-04-07T02:47:48;14.18;;;12.30;;
75689;SDS011;64303;53.118;9.044;2023-04-07T02:50:16;12.88;;;11.40;;
75689;SDS011;64303;53.118;9.044;2023-04-07T02:52:43;10.18;;;8.95;;
75689;SDS011;64303;53.118;9.044;2023-04-07T02:55:12;13.32;;;10.70;;
75689;SDS011;64303;53.118;9.044;2023-04-07T02:57:40;11.35;;;10.23;;
75689;SDS011;64303;53.118;9.044;2023-04-07T03:00:15;13.13;;;9.80;;
75689;SDS011;64303;53.118;9.044;2023-04-07T03:02:52;13.50;;;12.10;;
75689;SDS011;64303;53.118;9.044;2023-04-07T03:05:19;13.98;;;12.30;;
75689;SDS011;64303;53.118;9.044;2023-04-07T03:07:46;12.85;;;10.55;;
75689;SDS011;64303;53.118;9.044;2023-04-07T03:10:13;15.32;;;13.00;;
75689;SDS011;64303;53.118;9.044;2023-04-07T03:12:41;13.57;;;11.48;;
75689;SDS011;64303;53.118;9.044;2023-04-07T03:15:09;15.38;;;13.82;;
75689;SDS011;64303;53.118;9.044;2023-04-07T03:17:37;12.32;;;9.50;;
75689;SDS011;64303;53.118;9.044;2023-04-07T03:20:05;14.57;;;13.07;;
75689;SDS011;64303;53.118;9.044;2023-04-07T03:22:35;14.85;;;13.30;;
75689;SDS011;64303;53.118;9.044;2023-04-07T03:25:04;13.30;;;11.90;;
75689;SDS011;64303;53.118;9.044;2023-04-07T03:27:31;15.35;;;12.15;;
75689;SDS011;64303;53.118;9.044;2023-04-07T03:29:59;11.60;;;10.40;;
75689;SDS011;64303;53.118;9.044;2023-04-07T03:32:27;14.50;;;10.85;;
75689;SDS011;64303;53.118;9.044;2023-04-07T03:34:54;14.82;;;11.13;;
75689;SDS011;64303;53.118;9.044;2023-04-07T03:37:21;15.18;;;12.90;;
75689;SDS011;64303;53.118;9.044;2023-04-07T03:39:48;13.68;;;11.05;;
75689;SDS011;64303;53.118;9.044;2023-04-07T03:42:23;13.23;;;10.93;;
75689;SDS011;64303;53.118;9.044;2023-04-07T03:44:55;14.13;;;10.13;;
75689;SDS011;64303;53.118;9.044;2023-04-07T03:47:24;14.13;;;12.30;;
75689;SDS011;64303;53.118;9.044;2023-04-07T03:49:55;13.65;;;11.85;;
75689;SDS011;64303;53.118;9.044;2023-04-07T03:52:22;15.82;;;12.18;;
75689;SDS011;64303;53.118;9.044;2023-04-07T03:54:53;12.90;;;11.32;;
75689;SDS011;64303;53.118;9.044;2023-04-07T03:57:24;15.68;;;14.07;;
75689;SDS011;64303;53.118;9.044;2023-04-07T03:59:51;16.13;;;12.73;;
75689;SDS011;64303;53.118;9.044;2023-04-07T04:02:18;15.13;;;12.20;;
75689;SDS011;64303;53.118;9.044;2023-04-07T04:04:49;13.48;;;10.82;;
75689;SDS011;64303;53.118;9.044;2023-04-07T04:07:17;13.90;;;10.82;;
75689;SDS011;64303;53.118;9.044;2023-04-07T04:09:47;13.13;;;11.88;;
75689;SDS011;64303;53.118;9.044;2023-04-07T04:12:14;14.43;;;12.35;;
75689;SDS011;64303;53.118;9.044;2023-04-07T04:14:50;13.55;;;11.63;;
75689;SDS011;64303;53.118;9.044;2023-04-07T04:17:17;13.38;;;12.05;;
75689;SDS011;64303;53.118;9.044;2023-04-07T04:19:45;15.65;;;12.73;;
75689;SDS011;64303;53.118;9.044;2023-04-07T04:22:25;13.35;;;11.95;;
75689;SDS011;64303;53.118;9.044;2023-04-07T04:24:55;13.85;;;11.40;;
75689;SDS011;64303;53.118;9.044;2023-04-07T04:27:23;14.18;;;11.00;;
75689;SDS011;64303;53.118;9.044;2023-04-07T04:29:57;16.45;;;13.20;;
75689;SDS011;64303;53.118;9.044;2023-04-07T04:32:40;15.55;;;12.23;;
75689;SDS011;64303;53.118;9.044;2023-04-07T04:35:08;14.05;;;11.18;;
75689;SDS011;64303;53.118;9.044;2023-04-07T04:37:44;13.55;;;11.10;;
75689;SDS011;64303;53.118;9.044;2023-04-07T04:40:13;12.55;;;11.10;;
75689;SDS011;64303;53.118;9.044;2023-04-07T04:42:44;16.08;;;12.93;;
75689;SDS011;64303;53.118;9.044;2023-04-07T04:45:12;12.52;;;9.93;;
75689;SDS011;64303;53.118;9.044;2023-04-07T04:47:43;15.90;;;12.60;;
75689;SDS011;64303;53.118;9.044;2023-04-07T04:50:10;19.17;;;12.82;;
75689;SDS011;64303;53.118;9.044;2023-04-07T04:52:39;14.15;;;11.38;;
75689;SDS011;64303;53.118;9.044;2023-04-07T04:55:11;15.48;;;13.98;;
75689;SDS011;64303;53.118;9.044;2023-04-07T04:57:38;16.42;;;11.13;;
75689;SDS011;64303;53.118;9.044;2023-04-07T05:00:08;13.55;;;11.07;;
75689;SDS011;64303;53.118;9.044;2023-04-07T05:02:38;13.65;;;12.25;;
75689;SDS011;64303;53.118;9.044;2023-04-07T05:05:06;14.95;;;12.20;;
75689;SDS011;64303;53.118;9.044;2023-04-07T05:07:33;14.02;;;11.32;;
75689;SDS011;64303;53.118;9.044;2023-04-07T05:10:00;15.60;;;14.18;;
75689;SDS011;64303;53.118;9.044;2023-04-07T05:12:30;12.88;;;11.23;;
75689;SDS011;64303;53.118;9.044;2023-04-07T05:15:00;14.25;;;11.38;;
75689;SDS011;64303;53.118;9.044;2023-04-07T05:17:27;15.63;;;10.98;;
75689;SDS011;64303;53.118;9.044;2023-04-07T05:19:56;14.43;;;13.00;;
75689;SDS011;64303;53.118;9.044;2023-04-07T05:22:32;14.48;;;12.13;;
75689;SDS011;64303;53.118;9.044;2023-04-07T05:25:01;14.77;;;10.77;;
75689;SDS011;64303;53.118;9.044;2023-04-07T05:27:27;13.50;;;11.23;;
75689;SDS011;64303;53.118;9.044;2023-04-07T05:30:01;14.13;;;9.85;;
75689;SDS011;64303;53.118;9.044;2023-04-07T05:32:32;14.15;;;12.55;;
75689;SDS011;64303;53.118;9.044;2023-04-07T05:35:05;14.63;;;13.20;;
75689;SDS011;64303;53.118;9.044;2023-04-07T05:37:35;14.90;;;13.43;;
75689;SDS011;64303;53.118;9.044;2023-04-07T05:40:04;14.73;;;12.40;;
75689;SDS011;64303;53.118;9.044;2023-04-07T05:42:31;14.38;;;10.40;;
75689;SDS011;64303;53.118;9.044;2023-04-07T05:44:58;13.30;;;11.13;;
75689;SDS011;64303;53.118;9.044;2023-04-07T05:47:27;13.65;;;12.25;;
75689;SDS011;64303;53.118;9.044;2023-04-07T05:52:21;15.15;;;12.52;;
75689;SDS011;64303;53.118;9.044;2023-04-07T05:54:54;14.48;;;11.68;;
75689;SDS011;64303;53.118;9.044;2023-04-07T05:57:25;15.00;;;10.93;;
75689;SDS011;64303;53.118;9.044;2023-04-07T05:59:52;13.50;;;9.93;;
75689;SDS011;64303;53.118;9.044;2023-04-07T06:02:19;16.35;;;10.65;;
75689;SDS011;64303;53.118;9.044;2023-04-07T06:04:48;12.73;;;11.20;;
75689;SDS011;64303;53.118;9.044;2023-04-07T06:07:16;12.63;;;10.40;;
75689;SDS011;64303;53.118;9.044;2023-04-07T06:09:43;13.63;;;11.80;;
75689;SDS011;64303;53.118;9.044;2023-04-07T06:12:10;17.00;;;14.35;;
75689;SDS011;64303;53.118;9.044;2023-04-07T06:14:37;13.68;;;12.45;;
75689;SDS011;64303;53.118;9.044;2023-04-07T06:17:04;15.73;;;13.13;;
75689;SDS011;64303;53.118;9.044;2023-04-07T06:19:31;11.82;;;9.80;;
75689;SDS011;64303;53.118;9.044;2023-04-07T06:22:00;11.30;;;10.05;;
75689;SDS011;64303;53.118;9.044;2023-04-07T06:24:27;12.63;;;11.32;;
75689;SDS011;64303;53.118;9.044;2023-04-07T06:26:54;13.25;;;10.90;;
75689;SDS011;64303;53.118;9.044;2023-04-07T06:29:22;16.48;;;12.65;;
75689;SDS011;64303;53.118;9.044;2023-04-07T06:31:49;12.95;;;11.02;;
75689;SDS011;64303;53.118;9.044;2023-04-07T06:34:17;12.18;;;10.90;;
75689;SDS011;64303;53.118;9.044;2023-04-07T06:36:44;14.13;;;11.82;;
75689;SDS011;64303;53.118;9.044;2023-04-07T06:39:12;15.40;;;14.02;;
75689;SDS011;64303;53.118;9.044;2023-04-07T06:41:39;12.30;;;11.15;;
75689;SDS011;64303;53.118;9.044;2023-04-07T06:44:08;12.32;;;11.00;;
75689;SDS011;64303;53.118;9.044;2023-04-07T06:46:34;12.57;;;11.32;;
75689;SDS011;64303;53.118;9.044;2023-04-07T06:49:01;14.43;;;11.73;;
75689;SDS011;64303;53.118;9.044;2023-04-07T06:51:28;11.13;;;10.00;;
75689;SDS011;64303;53.118;9.044;2023-04-07T06:53:56;13.93;;;10.90;;
75689;SDS011;64303;53.118;9.044;2023-04-07T06:56:24;14.07;;;12.88;;
75689;SDS011;64303;53.118;9.044;2023-04-07T06:58:51;12.38;;;10.68;;
75689;SDS011;64303;53.118;9.044;2023-04-07T07:01:18;13.48;;;12.10;;
75689;SDS011;64303;53.118;9.044;2023-04-07T07:03:45;12.73;;;11.57;;
75689;SDS011;64303;53.118;9.044;2023-04-07T07:06:11;12.70;;;11.07;;
75689;SDS011;64303;53.118;9.044;2023-04-07T07:08:38;13.45;;;10.20;;
75689;SDS011;64303;53.118;9.044;2023-04-07T07:11:05;10.73;;;9.63;;
75689;SDS011;64303;53.118;9.044;2023-04-07T07:13:33;11.55;;;9.77;;
75689;SDS011;64303;53.118;9.044;2023-04-07T07:16:00;11.80;;;10.75;;
75689;SDS011;64303;53.118;9.044;2023-04-07T07:18:27;14.23;;;10.20;;
75689;SDS011;64303;53.118;9.044;2023-04-07T07:20:53;11.88;;;9.57;;
75689;SDS011;64303;53.118;9.044;2023-04-07T07:23:20;13.00;;;11.07;;
75689;SDS011;64303;53.118;9.044;2023-04-07T07:25:46;12.85;;;10.75;;
75689;SDS011;64303;53.118;9.044;2023-04-07T07:28:13;10.75;;;9.27;;
75689;SDS011;64303;53.118;9.044;2023-04-07T07:30:41;14.77;;;11.45;;
75689;SDS011;64303;53.118;9.044;2023-04-07T07:33:08;13.63;;;12.32;;
75689;SDS011;64303;53.118;9.044;2023-04-07T07:35:35;12.68;;;11.18;;
75689;SDS011;64303;53.118;9.044;2023-04-07T07:38:02;12.38;;;11.27;;
75689;SDS011;64303;53.118;9.044;2023-04-07T07:40:29;11.65;;;10.50;;
75689;SDS011;64303;53.118;9.044;2023-04-07T07:42:57;12.57;;;11.25;;
75689;SDS011;64303;53.118;9.044;2023-04-07T07:45:23;12.30;;;11.02;;
75689;SDS011;64303;53.118;9.044;2023-04-07T07:47:52;10.55;;;9.55;;
75689;SDS011;64303;53.118;9.044;2023-04-07T07:50:18;11.63;;;10.23;;
75689;SDS011;64303;53.118;9.044;2023-04-07T07:52:45;12.43;;;11.30;;
75689;SDS011;64303;53.118;9.044;2023-04-07T07:55:12;11.30;;;10.20;;
75689;SDS011;64303;53.118;9.044;2023-04-07T07:57:39;10.50;;;8.63;;
75689;SDS011;64303;53.118;9.044;2023-04-07T08:00:06;11.13;;;9.63;;
75689;SDS011;64303;53.118;9.044;2023-04-07T08:02:40;9.68;;;8.60;;
75689;SDS011;64303;53.118;9.044;2023-04-07T08:05:08;11.98;;;10.90;;
75689;SDS011;64303;53.118;9.044;2023-04-07T08:07:35;9.52;;;8.35;;
75689;SDS011;64303;53.118;9.044;2023-04-07T08:10:02;12.05;;;10.27;;
75689;SDS011;64303;53.118;9.044;2023-04-07T08:12:29;9.88;;;8.88;;
75689;SDS011;64303;53.118;9.044;2023-04-07T08:14:55;11.07;;;9.82;;
75689;SDS011;64303;53.118;9.044;2023-04-07T08:17:22;12.70;;;9.45;;
75689;SDS011;64303;53.118;9.044;2023-04-07T08:19:49;10.10;;;9.10;;
75689;SDS011;64303;53.118;9.044;2023-04-07T08:22:17;10.50;;;9.50;;
75689;SDS011;64303;53.118;9.044;2023-04-07T08:24:45;11.20;;;8.85;;
75689;SDS011;64303;53.118;9.044;2023-04-07T08:27:12;9.52;;;7.60;;
75689;SDS011;64303;53.118;9.044;2023-04-07T08:29:39;10.00;;;9.00;;
75689;SDS011;64303;53.118;9.044;2023-04-07T08:32:06;10.60;;;9.65;;
75689;SDS011;64303;53.118;9.044;2023-04-07T08:34:33;10.32;;;9.43;;
75689;SDS011;64303;53.118;9.044;2023-04-07T08:36:59;9.95;;;8.20;;
75689;SDS011;64303;53.118;9.044;2023-04-07T08:39:27;10.95;;;9.85;;
75689;SDS011;64303;53.118;9.044;2023-04-07T08:41:54;10.90;;;8.95;;
75689;SDS011;64303;53.118;9.044;2023-04-07T08:44:22;10.40;;;9.30;;
75689;SDS011;64303;53.118;9.044;2023-04-07T08:46:51;8.55;;;7.32;;
75689;SDS011;64303;53.118;9.044;2023-04-07T08:49:20;9.82;;;8.32;;
75689;SDS011;64303;53.118;9.044;2023-04-07T08:51:47;11.52;;;9.60;;
75689;SDS011;64303;53.118;9.044;2023-04-07T08:54:17;9.38;;;8.48;;
75689;SDS011;64303;53.118;9.044;2023-04-07T08:56:47;12.43;;;10.63;;
75689;SDS011;64303;53.118;9.044;2023-04-07T08:59:14;8.95;;;8.05;;
75689;SDS011;64303;53.118;9.044;2023-04-07T09:01:42;9.95;;;7.88;;
75689;SDS011;64303;53.118;9.044;2023-04-07T09:04:09;9.20;;;7.25;;
75689;SDS011;64303;53.118;9.044;2023-04-07T09:06:36;10.57;;;7.75;;
75689;SDS011;64303;53.118;9.044;2023-04-07T09:09:03;9.70;;;7.82;;
75689;SDS011;64303;53.118;9.044;2023-04-07T09:11:33;10.63;;;8.32;;
75689;SDS011;64303;53.118;9.044;2023-04-07T09:14:01;10.70;;;8.02;;
75689;SDS011;64303;53.118;9.044;2023-04-07T09:16:28;10.52;;;9.52;;
75689;SDS011;64303;53.118;9.044;2023-04-07T09:18:55;8.25;;;7.45;;
75689;SDS011;64303;53.118;9.044;2023-04-07T09:21:23;9.05;;;7.93;;
75689;SDS011;64303;53.118;9.044;2023-04-07T09:23:50;9.02;;;8.18;;
75689;SDS011;64303;53.118;9.044;2023-04-07T09:26:18;10.57;;;8.57;;
75689;SDS011;64303;53.118;9.044;2023-04-07T09:28:51;11.48;;;10.40;;
75689;SDS011;64303;53.118;9.044;2023-04-07T09:31:20;8.00;;;7.20;;
75689;SDS011;64303;53.118;9.044;2023-04-07T09:33:50;10.88;;;9.82;;
75689;SDS011;64303;53.118;9.044;2023-04-07T09:36:17;9.63;;;6.65;;
75689;SDS011;64303;53.118;9.044;2023-04-07T09:38:44;9.80;;;8.80;;
75689;SDS011;64303;53.118;9.044;2023-04-07T09:41:12;10.38;;;9.02;;
75689;SDS011;64303;53.118;9.044;2023-04-07T09:43:41;8.32;;;7.53;;
75689;SDS011;64303;53.118;9.044;2023-04-07T09:46:11;10.20;;;7.20;;
75689;SDS011;64303;53.118;9.044;2023-04-07T09:48:40;9.38;;;6.75;;
75689;SDS011;64303;53.118;9.044;2023-04-07T09:51:08;7.63;;;6.43;;
75689;SDS011;64303;53.118;9.044;2023-04-07T09:53:40;8.85;;;7.15;;
75689;SDS011;64303;53.118;9.044;2023-04-07T09:56:08;8.18;;;6.70;;
75689;SDS011;64303;53.118;9.044;2023-04-07T09:58:36;8.63;;;7.15;;
75689;SDS011;64303;53.118;9.044;2023-04-07T10:01:03;9.90;;;8.98;;
75689;SDS011;64303;53.118;9.044;2023-04-07T10:03:31;7.53;;;6.63;;
75689;SDS011;64303;53.118;9.044;2023-04-07T10:05:59;8.35;;;6.43;;
75689;SDS011;64303;53.118;9.044;2023-04-07T10:08:27;10.27;;;7.35;;
75689;SDS011;64303;53.118;9.044;2023-04-07T10:10:54;9.32;;;6.70;;
75689;SDS011;64303;53.118;9.044;2023-04-07T10:13:21;9.23;;;8.38;;
75689;SDS011;64303;53.118;9.044;2023-04-07T10:15:50;8.95;;;6.40;;
75689;SDS011;64303;53.118;9.044;2023-04-07T10:18:16;9.80;;;6.05;;
75689;SDS011;64303;53.118;9.044;2023-04-07T10:20:46;8.75;;;7.22;;
75689;SDS011;64303;53.118;9.044;2023-04-07T10:23:17;9.35;;;6.90;;
75689;SDS011;64303;53.118;9.044;2023-04-07T10:25:46;10.20;;;6.72;;
75689;SDS011;64303;53.118;9.044;2023-04-07T10:28:13;10.40;;;7.38;;
75689;SDS011;64303;53.118;9.044;2023-04-07T10:30:40;10.75;;;8.02;;
75689;SDS011;64303;53.118;9.044;2023-04-07T10:33:06;8.57;;;7.40;;
75689;SDS011;64303;53.118;9.044;2023-04-07T10:38:32;8.68;;;7.03;;
75689;SDS011;64303;53.118;9.044;2023-04-07T10:40:58;10.02;;;6.63;;
75689;SDS011;64303;53.118;9.044;2023-04-07T10:43:35;9.57;;;7.82;;
75689;SDS011;64303;53.118;9.044;2023-04-07T10:46:03;9.10;;;6.13;;
75689;SDS011;64303;53.118;9.044;2023-04-07T10:48:29;9.45;;;6.22;;
75689;SDS011;64303;53.118;9.044;2023-04-07T10:51:14;10.43;;;7.80;;
75689;SDS011;64303;53.118;9.044;2023-04-07T10:59:39;8.25;;;6.38;;
75689;SDS011;64303;53.118;9.044;2023-04-07T11:04:59;8.70;;;6.13;;
75689;SDS011;64303;53.118;9.044;2023-04-07T11:07:43;7.22;;;6.05;;
75689;SDS011;64303;53.118;9.044;2023-04-07T11:10:11;9.55;;;8.60;;
75689;SDS011;64303;53.118;9.044;2023-04-07T11:12:41;9.45;;;6.45;;
75689;SDS011;64303;53.118;9.044;2023-04-07T11:15:18;10.07;;;6.72;;
75689;SDS011;64303;53.118;9.044;2023-04-07T11:17:46;10.23;;;7.65;;
75689;SDS011;64303;53.118;9.044;2023-04-07T11:20:13;8.52;;;7.20;;
75689;SDS011;64303;53.118;9.044;2023-04-07T11:22:39;10.40;;;6.80;;
75689;SDS011;64303;53.118;9.044;2023-04-07T11:25:19;9.52;;;6.18;;
75689;SDS011;64303;53.118;9.044;2023-04-07T11:27:47;9.70;;;5.50;;
75689;SDS011;64303;53.118;9.044;2023-04-07T11:32:46;11.63;;;6.25;;
75689;SDS011;64303;53.118;9.044;2023-04-07T11:35:13;9.50;;;7.63;;
75689;SDS011;64303;53.118;9.044;2023-04-07T11:37:40;12.50;;;7.65;;
75689;SDS011;64303;53.118;9.044;2023-04-07T11:40:08;11.18;;;6.63;;
75689;SDS011;64303;53.118;9.044;2023-04-07T11:42:36;9.40;;;6.95;;
75689;SDS011;64303;53.118;9.044;2023-04-07T11:45:06;7.35;;;5.22;;
75689;SDS011;64303;53.118;9.044;2023-04-07T11:47:42;9.55;;;5.25;;
75689;SDS011;64303;53.118;9.044;2023-04-07T11:50:09;11.05;;;7.22;;
75689;SDS011;64303;53.118;9.044;2023-04-07T11:52:39;8.95;;;6.43;;
75689;SDS011;64303;53.118;9.044;2023-04-07T11:55:12;8.55;;;5.95;;
75689;SDS011;64303;53.118;9.044;2023-04-07T11:57:42;8.57;;;6.75;;
75689;SDS011;64303;53.118;9.044;2023-04-07T12:00:11;9.48;;;8.32;;
75689;SDS011;64303;53.118;9.044;2023-04-07T12:02:39;9.23;;;6.97;;
75689;SDS011;64303;53.118;9.044;2023-04-07T12:05:06;8.63;;;5.20;;
75689;SDS011;64303;53.118;9.044;2023-04-07T12:07:34;8.95;;;6.88;;
75689;SDS011;64303;53.118;9.044;2023-04-07T12:10:16;10.73;;;7.82;;
75689;SDS011;64303;53.118;9.044;2023-04-07T12:12:44;8.90;;;6.75;;
75689;SDS011;64303;53.118;9.044;2023-04-07T12:15:12;10.95;;;8.73;;
75689;SDS011;64303;53.118;9.044;2023-04-07T12:17:43;10.65;;;7.07;;
75689;SDS011;64303;53.118;9.044;2023-04-07T12:20:10;9.30;;;7.13;;
75689;SDS011;64303;53.118;9.044;2023-04-07T12:22:37;7.97;;;6.60;;
75689;SDS011;64303;53.118;9.044;2023-04-07T12:25:04;9.55;;;7.35;;
75689;SDS011;64303;53.118;9.044;2023-04-07T12:27:32;8.65;;;5.88;;
75689;SDS011;64303;53.118;9.044;2023-04-07T12:29:58;8.45;;;6.82;;
75689;SDS011;64303;53.118;9.044;2023-04-07T12:32:27;8.68;;;7.07;;
75689;SDS011;64303;53.118;9.044;2023-04-07T12:34:54;8.27;;;5.47;;
75689;SDS011;64303;53.118;9.044;2023-04-07T12:37:20;8.65;;;6.38;;
75689;SDS011;64303;53.118;9.044;2023-04-07T12:39:47;8.10;;;7.30;;
75689;SDS011;64303;53.118;9.044;2023-04-07T12:42:14;10.32;;;7.40;;
75689;SDS011;64303;53.118;9.044;2023-04-07T12:44:40;8.73;;;4.97;;
75689;SDS011;64303;53.118;9.044;2023-04-07T12:47:07;7.63;;;5.35;;
75689;SDS011;64303;53.118;9.044;2023-04-07T12:49:37;8.30;;;6.63;;
75689;SDS011;64303;53.118;9.044;2023-04-07T12:52:04;7.88;;;6.07;;
75689;SDS011;64303;53.118;9.044;2023-04-07T12:54:31;8.88;;;5.90;;
75689;SDS011;64303;53.118;9.044;2023-04-07T12:56:58;8.95;;;6.80;;
75689;SDS011;64303;53.118;9.044;2023-04-07T12:59:25;11.02;;;7.05;;
75689;SDS011;64303;53.118;9.044;2023-04-07T13:01:51;7.88;;;5.85;;
75689;SDS011;64303;53.118;9.044;2023-04-07T13:04:18;7.30;;;4.80;;
75689;SDS011;64303;53.118;9.044;2023-04-07T13:06:46;8.02;;;5.68;;
75689;SDS011;64303;53.118;9.044;2023-04-07T13:09:13;10.02;;;6.95;;
75689;SDS011;64303;53.118;9.044;2023-04-07T13:11:40;6.22;;;4.18;;
75689;SDS011;64303;53.118;9.044;2023-04-07T13:14:06;7.70;;;5.63;;
75689;SDS011;64303;53.118;9.044;2023-04-07T13:16:33;7.63;;;4.75;;
75689;SDS011;64303;53.118;9.044;2023-04-07T13:19:00;8.23;;;6.00;;
75689;SDS011;64303;53.118;9.044;2023-04-07T13:21:28;7.85;;;6.63;;
75689;SDS011;64303;53.118;9.044;2023-04-07T13:23:56;6.15;;;5.57;;
75689;SDS011;64303;53.118;9.044;2023-04-07T13:26:23;6.85;;;5.57;;
75689;SDS011;64303;53.118;9.044;2023-04-07T13:28:50;6.07;;;5.25;;
75689;SDS011;64303;53.118;9.044;2023-04-07T13:31:17;7.88;;;4.93;;
75689;SDS011;64303;53.118;9.044;2023-04-07T13:33:45;6.20;;;4.88;;
75689;SDS011;64303;53.118;9.044;2023-04-07T13:36:12;7.32;;;6.22;;
75689;SDS011;64303;53.118;9.044;2023-04-07T13:38:39;8.45;;;5.15;;
75689;SDS011;64303;53.118;9.044;2023-04-07T13:41:08;6.90;;;5.22;;
75689;SDS011;64303;53.118;9.044;2023-04-07T13:46:01;6.65;;;5.65;;
75689;SDS011;64303;53.118;9.044;2023-04-07T13:48:27;5.72;;;4.40;;
75689;SDS011;64303;53.118;9.044;2023-04-07T13:50:54;7.47;;;4.78;;
75689;SDS011;64303;53.118;9.044;2023-04-07T13:53:21;6.22;;;4.68;;
75689;SDS011;64303;53.118;9.044;2023-04-07T13:55:48;5.60;;;4.63;;
75689;SDS011;64303;53.118;9.044;2023-04-07T13:58:16;6.03;;;4.95;;
75689;SDS011;64303;53.118;9.044;2023-04-07T14:00:43;7.10;;;6.38;;
75689;SDS011;64303;53.118;9.044;2023-04-07T14:03:09;6.60;;;5.45;;
75689;SDS011;64303;53.118;9.044;2023-04-07T14:05:36;6.97;;;5.60;;
75689;SDS011;64303;53.118;9.044;2023-04-07T14:08:03;6.65;;;5.47;;
75689;SDS011;64303;53.118;9.044;2023-04-07T14:10:29;7.93;;;4.18;;
75689;SDS011;64303;53.118;9.044;2023-04-07T14:12:57;8.55;;;3.88;;
75689;SDS011;64303;53.118;9.044;2023-04-07T14:15:25;8.00;;;3.67;;
75689;SDS011;64303;53.118;9.044;2023-04-07T14:17:52;5.43;;;3.60;;
75689;SDS011;64303;53.118;9.044;2023-04-07T14:20:19;5.95;;;3.28;;
75689;SDS011;64303;53.118;9.044;2023-04-07T14:22:45;6.38;;;5.25;;
75689;SDS011;64303;53.118;9.044;2023-04-07T14:25:12;5.57;;;4.10;;
75689;SDS011;64303;53.118;9.044;2023-04-07T14:27:39;4.95;;;4.03;;
75689;SDS011;64303;53.118;9.044;2023-04-07T14:30:06;7.22;;;3.90;;
75689;SDS011;64303;53.118;9.044;2023-04-07T14:32:34;5.65;;;4.50;;
75689;SDS011;64303;53.118;9.044;2023-04-07T14:35:01;6.03;;;4.28;;
75689;SDS011;64303;53.118;9.044;2023-04-07T14:37:28;6.68;;;4.47;;
75689;SDS011;64303;53.118;9.044;2023-04-07T14:39:55;7.70;;;6.03;;
75689;SDS011;64303;53.118;9.044;2023-04-07T14:42:22;6.82;;;5.03;;
75689;SDS011;64303;53.118;9.044;2023-04-07T14:44:48;6.38;;;5.13;;
75689;SDS011;64303;53.118;9.044;2023-04-07T14:47:15;8.38;;;5.85;;
75689;SDS011;64303;53.118;9.044;2023-04-07T14:49:43;5.60;;;4.50;;
75689;SDS011;64303;53.118;9.044;2023-04-07T14:54:37;7.10;;;4.93;;
75689;SDS011;64303;53.118;9.044;2023-04-07T14:57:04;5.45;;;3.67;;
75689;SDS011;64303;53.118;9.044;2023-04-07T14:59:31;6.15;;;4.43;;
75689;SDS011;64303;53.118;9.044;2023-04-07T15:01:58;8.20;;;5.18;;
75689;SDS011;64303;53.118;9.044;2023-04-07T15:04:25;7.00;;;5.57;;
75689;SDS011;64303;53.118;9.044;2023-04-07T15:06:53;5.90;;;4.72;;
75689;SDS011;64303;53.118;9.044;2023-04-07T15:09:20;7.22;;;5.93;;